LPPTLPMA

Guest
Details From LPPT - Lisboa
To LPMA - Madeira
Flight Number -
Tags decoded
Created
Modified
Stats Distance 570 nm / 1,056 km
Max Altitude 0 ft / 0 m
Waypoints 5
Social Downloads 1
Likes 0
Share VATSIM

Download

Looking for another format? Having issues loading an existing format? Contact us
Advertisement - Login to hide

Notes

Requested: LPPT BUSEN NAVIX T16 SNT LPMA

Route

LPPT BUSEN NAVIX T16 SNT LPMA

ID Type Via Altitude Latitude Longitude Leg Dist Tot Dist Heading (true) Name
O LPPT APT - 0 ft / 0 m 38.77856˚ -9.13515˚ - 0 nm - Lisboa
BUSEN FIX - 0 ft / 0 m 38.54500˚ -10.00000˚ 42 nm 42 nm 251° / 251° -
NAVIX FIX - 0 ft / 0 m 35.52056˚ -16.23444˚ 349 nm 392 nm 241° / 237° -
SNT VOR T16 (AWY-LO) 0 ft / 0 m 33.09028˚ -16.35056˚ 146 nm 538 nm 182° / 182° PORTO SANTO VOR-DME
O LPMA APT - 0 ft / 0 m 32.69770˚ -16.77445˚ 31 nm 570 nm 222° / 222° Madeira

Altitude Profile

Advertisement - Login to hide

Weather


0- 5 10 15 20 25 30 35+ Temperature / ° C

Clouds and Precipitation
Forecast for 2018-05-22 06:00 UTC. Updated 3 hours ago

Ground ~20,000 ft ~40,000 ft Winds

LPPT

Details ICAO LPPT (LIS)
Name Lisboa
Region Portugal
Timezone Europe/Lisbon (UTC+1.0)
Stats Elevation 374 ft / 114 m (AMSL)
Location 38.778559° -9.135146°
Runways 2
Magnetic Variation 2.310° W

METAR

LPPT 220830Z 14008KT 9999 FEW009 SCT016 BKN022 15/13 Q1014

Decode

TAF

TAF LPPT 220500Z 2206/2312 16005KT 9999 BKN012 BECMG 2208/2210 13008KT SCT015 BECMG 2210/2213 22010KT FEW030 BECMG 2220/2223 VRB03KT SCT012 PROB30 TEMPO 2223/2309 BKN008 BECMG 2306/2308 13007KT

Decode

Departure Runways

ID Width Length Bearing (true) Bearing (mag) Surface Threshold Offset Overrun Length
03 148 ft / 45 m 12,518 ft / 3,815 m 22.70° 25.01° Asphalt 296 ft / 90 m 0 ft / 0 m
17 148 ft / 45 m 7,922 ft / 2,415 m 168.38° 170.69° Asphalt 0 ft / 0 m 0 ft / 0 m
21 148 ft / 45 m 12,518 ft / 3,815 m 202.72° 205.03° Asphalt 1,969 ft / 600 m 0 ft / 0 m
35 148 ft / 45 m 7,922 ft / 2,415 m 348.38° 350.69° Asphalt 492 ft / 150 m 0 ft / 0 m

LPMA

Details ICAO LPMA (FNC)
Name Madeira
Region Portugal
Timezone Atlantic/Madeira (UTC+1.0)
Stats Elevation 192 ft / 59 m (AMSL)
Location 32.697704° -16.774449°
Runways 1
Magnetic Variation 4.928° W

METAR

LPMA 220830Z 35016G27KT 310V010 9999 FEW015 BKN030 18/10 Q1016

Decode

TAF

TAF LPMA 220500Z 2206/2306 35015KT 9999 SCT015 PROB40 TEMPO 2206/2212 36018G28KT BECMG 2210/2212 VRB05KT FEW015 SCT030

Decode

Destination Runways

ID Width Length Bearing (true) Bearing (mag) Surface Threshold Offset Overrun Length
05 141 ft / 43 m 8,683 ft / 2,647 m 42.98° 47.91° Asphalt 472 ft / 144 m 0 ft / 0 m
23 141 ft / 43 m 8,683 ft / 2,647 m 222.99° 227.92° Asphalt 466 ft / 142 m 0 ft / 0 m

Popular Alternatives